Time;durP1;ratioP1;P1;durP2;ratioP2;P2;SDS_P1;SDS_P2;PMS_P1;PMS_P2;Temp;Humidity;BMP_temperature;BMP_pressure;BME280_temperature;BME280_humidity;BME280_pressure;Samples;Min_cycle;Max_cycle;Signal;HPM_P1;HPM_P2
2021/05/09 00:00:23;;;;;;;2.72;1.20;;;;;;;22.33;59.21;101484.03;1860225;75;22447;-57
2021/05/09 00:02:59;;;;;;;3.98;1.25;;;;;;;22.30;59.38;101481.89;1859511;75;22728;-59
2021/05/09 00:05:34;;;;;;;5.70;1.67;;;;;;;22.26;59.49;101483.09;1856345;75;22736;-59
2021/05/09 00:08:10;;;;;;;3.90;1.40;;;;;;;22.24;59.57;101489.50;1858644;75;22689;-61
2021/05/09 00:10:45;;;;;;;3.33;0.95;;;;;;;22.22;59.58;101496.50;1854244;75;22348;-58
2021/05/09 00:13:20;;;;;;;1.50;1.10;;;;;;;22.19;59.55;101500.70;1856235;75;23354;-59
2021/05/09 00:15:56;;;;;;;2.58;1.02;;;;;;;22.17;59.51;101500.77;1882964;74;22585;-59
2021/05/09 00:18:32;;;;;;;3.23;1.43;;;;;;;22.15;59.45;101502.45;1843320;75;38146;-59
2021/05/09 00:21:07;;;;;;;4.20;1.30;;;;;;;22.25;59.30;101501.41;1857807;75;22748;-59
2021/05/09 00:23:42;;;;;;;2.65;1.20;;;;;;;22.23;59.30;101507.84;1860496;75;23364;-59
2021/05/09 00:26:17;;;;;;;3.47;1.35;;;;;;;22.18;59.25;101510.16;1835545;76;23366;-59
2021/05/09 00:28:52;;;;;;;2.60;1.17;;;;;;;22.14;59.23;101508.33;1829921;76;22741;-59
2021/05/09 00:31:28;;;;;;;3.12;1.50;;;;;;;22.10;59.22;101516.45;1865184;75;22672;-59
2021/05/09 00:34:03;;;;;;;1.98;1.02;;;;;;;22.07;59.20;101517.05;1854178;75;22627;-60
2021/05/09 00:36:38;;;;;;;3.15;1.15;;;;;;;22.04;59.22;101518.23;1859959;75;22792;-61
2021/05/09 00:39:14;;;;;;;2.60;1.10;;;;;;;22.01;59.20;101521.08;1860202;75;22695;-58
2021/05/09 00:41:49;;;;;;;2.05;1.00;;;;;;;21.98;59.18;101522.27;1828989;76;23361;-59
2021/05/09 00:44:24;;;;;;;2.58;1.27;;;;;;;21.94;59.18;101528.17;1855964;75;22727;-59
2021/05/09 00:47:01;;;;;;;5.53;1.40;;;;;;;21.91;59.19;101521.25;1843164;75;22713;-59
2021/05/09 00:49:37;;;;;;;1.95;1.00;;;;;;;21.89;59.20;101522.14;1824057;76;22706;-61
2021/05/09 00:52:12;;;;;;;2.47;1.40;;;;;;;21.87;59.17;101526.59;1858695;75;23342;-59
2021/05/09 00:54:52;;;;;;;2.42;1.10;;;;;;;21.85;59.18;101521.91;1841849;76;23289;-59
2021/05/09 00:57:27;;;;;;;2.45;1.27;;;;;;;21.83;59.15;101522.80;1859225;75;23315;-59
2021/05/09 01:00:05;;;;;;;2.50;1.17;;;;;;;21.85;59.15;101521.91;1888318;74;22793;-59
2021/05/09 01:02:42;;;;;;;1.40;0.80;;;;;;;21.87;59.21;101527.16;1859782;75;23615;-59
2021/05/09 01:05:17;;;;;;;2.62;0.98;;;;;;;21.87;59.32;101528.53;1873444;74;22017;-58
2021/05/09 01:07:53;;;;;;;1.37;0.95;;;;;;;21.87;59.38;101524.38;1860502;75;22674;-58
2021/05/09 01:10:29;;;;;;;3.22;1.30;;;;;;;21.86;59.38;101528.27;1843030;75;38015;-59
2021/05/09 01:13:04;;;;;;;2.10;1.25;;;;;;;21.99;59.13;101542.72;1860414;75;22693;-59
2021/05/09 01:15:39;;;;;;;3.30;1.10;;;;;;;21.99;59.08;101536.35;1861823;75;22705;-58
2021/05/09 01:18:14;;;;;;;1.67;1.00;;;;;;;21.98;59.03;101540.27;1843295;76;22706;-58
2021/05/09 01:20:50;;;;;;;3.02;1.20;;;;;;;21.95;58.98;101538.10;1860490;75;22736;-59
2021/05/09 01:23:25;;;;;;;3.55;1.45;;;;;;;21.92;58.92;101540.08;1862749;75;22740;-61
2021/05/09 01:26:00;;;;;;;1.90;1.07;;;;;;;21.90;58.88;101538.20;1862536;75;22673;-58
2021/05/09 01:28:35;;;;;;;2.92;1.25;;;;;;;21.86;58.84;101537.41;1863689;76;23313;-60
2021/05/09 01:31:10;;;;;;;1.95;1.02;;;;;;;21.83;58.82;101542.19;1824878;77;23278;-59
2021/05/09 01:33:45;;;;;;;2.85;1.10;;;;;;;21.80;58.80;101542.81;1860149;75;22661;-60
2021/05/09 01:36:20;;;;;;;2.25;1.10;;;;;;;21.79;58.74;101537.57;1857873;75;22657;-58
2021/05/09 01:38:55;;;;;;;1.70;1.00;;;;;;;21.75;58.76;101542.91;1860593;75;22724;-60
2021/05/09 01:41:31;;;;;;;1.55;1.20;;;;;;;21.73;58.75;101547.92;1836582;76;22713;-58
2021/05/09 01:44:06;;;;;;;2.77;1.12;;;;;;;21.72;58.73;101544.92;1856618;75;24266;-58
2021/05/09 01:46:41;;;;;;;1.37;0.98;;;;;;;21.69;58.73;101548.28;1860831;75;22852;-58
2021/05/09 01:49:16;;;;;;;1.47;1.00;;;;;;;21.67;58.70;101545.02;1860428;75;22712;-58
2021/05/09 01:51:54;;;;;;;1.75;0.93;;;;;;;21.66;58.68;101553.62;1877394;74;22672;-59
2021/05/09 01:54:29;;;;;;;1.90;1.20;;;;;;;21.64;58.69;101560.84;1856678;75;22714;-59
2021/05/09 01:57:04;;;;;;;3.40;1.87;;;;;;;21.62;58.66;101560.34;1858943;75;22730;-62
2021/05/09 01:59:40;;;;;;;2.45;1.40;;;;;;;21.59;58.66;101563.73;1848837;75;27712;-59
2021/05/09 02:02:15;;;;;;;1.35;1.00;;;;;;;21.72;58.52;101566.25;1858400;75;22839;-59
2021/05/09 02:04:52;;;;;;;2.50;1.20;;;;;;;21.69;58.52;101570.44;1861008;75;22668;-59
2021/05/09 02:07:27;;;;;;;2.33;1.10;;;;;;;21.68;58.51;101574.92;1834724;76;22666;-58
2021/05/09 02:10:06;;;;;;;1.55;1.02;;;;;;;21.65;58.50;101573.56;1857954;75;23247;-60
2021/05/09 02:12:42;;;;;;;3.33;1.20;;;;;;;21.62;58.48;101578.34;1840842;76;22875;-58
2021/05/09 02:15:17;;;;;;;3.17;1.30;;;;;;;21.59;58.49;101584.50;1858095;75;22695;-58
2021/05/09 02:17:52;;;;;;;2.50;1.15;;;;;;;21.57;58.49;101583.14;1874878;74;23377;-59
2021/05/09 02:20:27;;;;;;;3.25;1.07;;;;;;;21.55;58.51;101584.85;1856394;75;22690;-59
2021/05/09 02:23:03;;;;;;;1.95;1.17;;;;;;;21.53;58.47;101587.09;1834846;76;22718;-59
2021/05/09 02:25:38;;;;;;;2.98;1.85;;;;;;;21.52;58.48;101592.92;1853631;75;22702;-58
2021/05/09 02:28:13;;;;;;;3.33;2.00;;;;;;;21.49;58.47;101594.92;1860922;75;22785;-61
2021/05/09 02:30:48;;;;;;;1.82;1.00;;;;;;;21.47;58.45;101602.17;1857365;75;22610;-59
2021/05/09 02:33:24;;;;;;;1.42;1.07;;;;;;;21.46;58.48;101607.44;1842314;76;22686;-60
2021/05/09 02:35:59;;;;;;;2.95;1.15;;;;;;;21.44;58.44;101606.91;1860442;75;22672;-58
2021/05/09 02:38:34;;;;;;;3.08;1.30;;;;;;;21.44;58.43;101615.22;1859548;75;22657;-58
2021/05/09 02:41:09;;;;;;;1.98;1.25;;;;;;;21.42;58.42;101618.86;1857452;75;22673;-58
2021/05/09 02:43:44;;;;;;;2.40;1.05;;;;;;;21.40;58.42;101622.48;1840303;76;23293;-57
2021/05/09 02:46:19;;;;;;;3.67;1.02;;;;;;;21.44;58.45;101626.29;1868445;75;22685;-59
2021/05/09 02:48:54;;;;;;;3.22;1.15;;;;;;;21.47;58.49;101626.27;1858898;75;22903;-58
2021/05/09 02:51:29;;;;;;;1.70;0.90;;;;;;;21.48;58.61;101631.47;1840449;75;22750;-58
2021/05/09 02:54:05;;;;;;;2.20;1.00;;;;;;;21.49;58.68;101634.51;1832725;76;22814;-59
2021/05/09 02:56:40;;;;;;;2.20;1.22;;;;;;;21.49;58.68;101633.69;1859503;75;22733;-58
2021/05/09 02:59:15;;;;;;;1.80;1.00;;;;;;;21.48;58.65;101634.24;1857677;75;22752;-57
2021/05/09 03:01:50;;;;;;;2.62;0.98;;;;;;;21.48;58.57;101633.42;1859124;75;22666;-58
2021/05/09 03:04:26;;;;;;;1.98;1.10;;;;;;;21.48;58.49;101640.34;1859922;75;22742;-61
2021/05/09 03:07:10;;;;;;;2.40;1.20;;;;;;;21.47;58.42;101645.08;1854821;75;22381;-61
2021/05/09 03:09:45;;;;;;;1.87;1.07;;;;;;;21.45;58.34;101647.31;1858243;75;22744;-61
2021/05/09 03:12:21;;;;;;;1.70;0.90;;;;;;;21.43;58.30;101655.09;1857563;75;22393;-62
2021/05/09 03:14:56;;;;;;;2.65;1.25;;;;;;;21.41;58.25;101655.97;1857055;75;22854;-60
2021/05/09 03:17:33;;;;;;;1.30;1.05;;;;;;;21.40;58.23;101668.16;1842326;75;21886;-60
2021/05/09 03:20:10;;;;;;;6.47;1.50;;;;;;;21.38;58.20;101673.20;1842373;75;27918;-63
2021/05/09 03:22:47;;;;;;;2.72;1.12;;;;;;;21.50;58.00;101673.54;1883022;74;22235;-60
2021/05/09 03:25:22;;;;;;;2.95;1.30;;;;;;;21.49;57.98;101676.59;1840959;75;38769;-60
2021/05/09 03:27:58;;;;;;;2.35;1.10;;;;;;;21.62;57.71;101679.98;1845350;76;22704;-60
2021/05/09 03:30:33;;;;;;;4.00;1.33;;;;;;;21.58;57.76;101678.94;1843755;76;28574;-61
2021/05/09 03:33:08;;;;;;;4.15;1.15;;;;;;;21.71;57.49;101682.31;1861409;75;22664;-60
2021/05/09 03:35:43;;;;;;;2.70;1.20;;;;;;;21.66;57.56;101684.61;1856037;75;23073;-58
2021/05/09 03:38:19;;;;;;;3.58;1.42;;;;;;;21.61;57.56;101690.78;1843640;76;22754;-58
2021/05/09 03:40:54;;;;;;;3.77;1.12;;;;;;;21.56;57.57;101697.23;1861929;75;23355;-58
2021/05/09 03:43:29;;;;;;;1.80;1.12;;;;;;;21.50;57.57;101699.84;1858925;75;22667;-58
2021/05/09 03:46:04;;;;;;;3.58;1.20;;;;;;;21.46;57.60;101702.95;1857259;75;22717;-59
2021/05/09 03:48:39;;;;;;;3.72;1.20;;;;;;;21.43;57.58;101710.45;1857792;75;23228;-58
2021/05/09 03:51:15;;;;;;;2.35;1.25;;;;;;;21.39;57.59;101714.40;1841048;76;22674;-57
2021/05/09 03:53:50;;;;;;;1.67;1.00;;;;;;;21.36;57.61;101720.55;1832140;76;22759;-59
2021/05/09 03:56:25;;;;;;;1.67;1.02;;;;;;;21.32;57.63;101725.03;1860843;75;22742;-58
2021/05/09 03:59:00;;;;;;;1.52;1.05;;;;;;;21.30;57.63;101730.03;1862927;75;23238;-60
2021/05/09 04:01:35;;;;;;;1.65;1.15;;;;;;;21.29;57.66;101730.36;1822717;76;22693;-57
2021/05/09 04:04:10;;;;;;;1.75;1.02;;;;;;;21.25;57.67;101731.52;1860474;75;22711;-59
2021/05/09 04:06:45;;;;;;;3.10;1.27;;;;;;;21.25;57.69;101733.46;1890656;74;22736;-58
2021/05/09 04:09:20;;;;;;;2.12;1.07;;;;;;;21.25;57.75;101732.91;1858203;75;23324;-58
2021/05/09 04:11:56;;;;;;;1.92;1.17;;;;;;;21.26;57.77;101733.14;1858834;75;22677;-58
2021/05/09 04:14:32;;;;;;;1.72;0.95;;;;;;;21.29;57.79;101733.12;1858468;75;22688;-58
2021/05/09 04:17:07;;;;;;;2.10;1.30;;;;;;;21.31;57.78;101741.38;1817613;77;28029;-58
2021/05/09 04:19:43;;;;;;;2.80;1.37;;;;;;;21.47;57.58;101748.91;1836560;75;22723;-58
2021/05/09 04:22:18;;;;;;;1.82;0.90;;;;;;;21.50;57.59;101755.22;1861579;75;23390;-58
2021/05/09 04:24:54;;;;;;;2.87;1.40;;;;;;;21.52;57.57;101759.88;1869791;74;27817;-58
2021/05/09 04:27:29;;;;;;;1.87;1.30;;;;;;;21.68;57.31;101759.09;1859433;75;22665;-57
2021/05/09 04:30:06;;;;;;;2.40;0.85;;;;;;;21.67;57.35;101759.66;1839666;76;22727;-60
2021/05/09 04:32:41;;;;;;;2.90;0.98;;;;;;;21.66;57.33;101762.16;1861650;75;22663;-58
2021/05/09 04:35:17;;;;;;;2.83;1.10;;;;;;;21.67;57.33;101769.34;1812830;78;23378;-60
2021/05/09 04:37:52;;;;;;;1.98;1.00;;;;;;;21.67;57.32;101772.67;1861045;75;23291;-60
2021/05/09 04:40:28;;;;;;;1.02;0.80;;;;;;;21.67;57.30;101774.05;1824958;78;22386;-60
2021/05/09 04:43:11;;;;;;;1.52;1.00;;;;;;;21.67;57.29;101776.27;1831230;76;21801;-62
2021/05/09 04:45:48;;;;;;;3.90;1.15;;;;;;;21.69;57.24;101783.70;1860252;75;22694;-60
2021/05/09 04:48:23;;;;;;;2.47;1.25;;;;;;;21.69;57.24;101787.02;1842496;76;27884;-61
2021/05/09 04:50:58;;;;;;;1.27;0.98;;;;;;;21.82;57.00;101786.26;1857138;75;22610;-61
2021/05/09 04:53:36;;;;;;;1.85;1.30;;;;;;;21.81;57.03;101788.20;1883348;74;22639;-59
2021/05/09 04:56:11;;;;;;;3.27;0.98;;;;;;;21.82;57.02;101784.88;1864355;75;22658;-58
2021/05/09 04:58:46;;;;;;;3.22;0.80;;;;;;;21.82;57.00;101787.64;1859673;75;22781;-58
2021/05/09 05:01:21;;;;;;;2.10;1.10;;;;;;;21.82;56.95;101791.24;1855235;75;22785;-58
2021/05/09 05:03:56;;;;;;;2.00;1.20;;;;;;;21.81;56.95;101785.44;1836913;76;23229;-61
2021/05/09 05:06:32;;;;;;;1.67;1.10;;;;;;;21.82;56.91;101791.24;1810471;77;22716;-58
2021/05/09 05:09:07;;;;;;;2.47;1.00;;;;;;;21.82;56.88;101789.03;1881901;74;22806;-58
2021/05/09 05:11:42;;;;;;;1.52;0.90;;;;;;;21.82;56.85;101793.19;1859104;75;22783;-59
2021/05/09 05:14:18;;;;;;;1.45;0.82;;;;;;;21.81;56.84;101789.59;1862422;75;22659;-59
2021/05/09 05:16:53;;;;;;;1.95;1.10;;;;;;;21.82;56.81;101788.47;1864429;75;22838;-58
2021/05/09 05:19:28;;;;;;;1.30;1.05;;;;;;;21.85;56.76;101793.40;1860170;75;22345;-58
2021/05/09 05:22:04;;;;;;;1.80;1.10;;;;;;;21.84;56.76;101794.55;1881842;74;22713;-58
2021/05/09 05:24:40;;;;;;;2.30;1.20;;;;;;;21.85;56.71;101792.02;1845617;75;28349;-60
2021/05/09 05:27:15;;;;;;;1.47;1.05;;;;;;;22.00;56.44;101795.13;1856613;75;22709;-61
2021/05/09 05:29:50;;;;;;;1.80;1.27;;;;;;;21.99;56.47;101797.64;1843648;76;23328;-60
2021/05/09 05:32:25;;;;;;;1.67;0.95;;;;;;;21.99;56.44;101799.02;1860508;75;22676;-58
2021/05/09 05:35:00;;;;;;;3.65;1.77;;;;;;;21.97;56.43;101801.85;1859204;76;22768;-59
2021/05/09 05:37:35;;;;;;;2.02;1.20;;;;;;;21.98;56.39;101803.50;1825016;76;22670;-58
2021/05/09 05:40:12;;;;;;;3.50;1.22;;;;;;;21.96;56.39;101801.02;1883840;74;22777;-61
2021/05/09 05:42:47;;;;;;;2.80;1.30;;;;;;;21.95;56.39;101806.30;1859368;75;22488;-61
2021/05/09 05:45:23;;;;;;;2.55;1.40;;;;;;;21.97;56.37;101810.16;1821090;76;48441;-62
2021/05/09 05:47:58;;;;;;;2.50;1.32;;;;;;;22.10;56.08;101810.77;1863936;75;22706;-61
2021/05/09 05:50:33;;;;;;;2.33;1.27;;;;;;;22.10;56.12;101808.83;1857233;75;22693;-61
2021/05/09 05:53:09;;;;;;;3.12;1.15;;;;;;;22.10;56.08;101808.00;1837175;76;22839;-61
2021/05/09 05:55:45;;;;;;;2.85;1.30;;;;;;;22.08;56.06;101815.78;1859443;75;22688;-59
2021/05/09 05:58:21;;;;;;;2.00;1.12;;;;;;;22.08;56.06;101807.47;1858754;75;20980;-62
2021/05/09 06:00:56;;;;;;;2.65;1.45;;;;;;;22.08;56.04;101810.23;1846785;75;27774;-58
2021/05/09 06:03:32;;;;;;;2.40;1.50;;;;;;;22.20;55.75;101814.73;1841888;76;22700;-61
2021/05/09 06:06:08;;;;;;;2.02;1.22;;;;;;;22.17;55.80;101812.58;1875248;74;22383;-58
2021/05/09 06:08:45;;;;;;;2.47;1.70;;;;;;;22.16;55.81;101820.06;1843503;75;28417;-60
2021/05/09 06:11:20;;;;;;;3.80;1.77;;;;;;;22.31;55.48;101824.53;1860200;76;22646;-58
2021/05/09 06:13:55;;;;;;;3.17;1.27;;;;;;;22.27;55.55;101823.50;1842631;76;22709;-62
2021/05/09 06:16:30;;;;;;;2.17;1.40;;;;;;;22.26;55.56;101826.00;1861264;75;23329;-60
2021/05/09 06:19:06;;;;;;;3.80;1.47;;;;;;;22.24;55.56;101828.24;1858231;75;22172;-60
2021/05/09 06:21:41;;;;;;;2.92;1.50;;;;;;;22.23;55.56;101834.94;1826820;76;23289;-62
2021/05/09 06:24:16;;;;;;;1.55;1.20;;;;;;;22.22;55.55;101831.90;1839826;75;22688;-61
2021/05/09 06:26:51;;;;;;;1.60;1.30;;;;;;;22.18;55.53;101838.62;1835923;76;22752;-60
2021/05/09 06:29:27;;;;;;;2.92;1.30;;;;;;;22.17;55.54;101836.14;1844182;76;22798;-61
2021/05/09 06:32:02;;;;;;;3.08;1.30;;;;;;;22.16;55.53;101840.03;1862979;75;22707;-58
2021/05/09 06:34:37;;;;;;;2.02;1.30;;;;;;;22.15;55.53;101840.59;1858803;75;22697;-61
2021/05/09 06:37:13;;;;;;;2.52;1.37;;;;;;;22.16;55.53;101845.57;1861205;75;23328;-60
2021/05/09 06:39:54;;;;;;;5.00;2.08;;;;;;;22.15;55.52;101836.43;1838647;76;22763;-61
2021/05/09 06:42:29;;;;;;;3.87;2.05;;;;;;;22.16;55.52;101843.63;1862478;75;21812;-58
2021/05/09 06:45:11;;;;;;;2.45;1.55;;;;;;;22.19;55.51;101844.98;1861730;75;23357;-62
2021/05/09 06:47:43;;;;;;;12.37;6.62;;;;;;;22.20;55.52;101846.61;1861159;75;22759;-59
2021/05/09 06:50:19;;;;;;;28.42;11.08;;;;;;;22.20;55.52;101846.61;1863227;75;23133;-61
2021/05/09 06:52:55;;;;;;;7.27;2.70;;;;;;;22.22;55.52;101856.28;1848920;76;27873;-58
2021/05/09 06:55:30;;;;;;;3.50;1.87;;;;;;;22.37;55.36;101856.56;1818233;76;28433;-61
2021/05/09 06:58:09;;;;;;;3.62;2.33;;;;;;;22.53;55.08;101859.91;1867131;75;22674;-61
2021/05/09 07:00:42;;;;;;;3.27;1.80;;;;;;;22.51;55.20;101860.77;1861569;75;22716;-62
2021/05/09 07:03:18;;;;;;;16.97;6.62;;;;;;;22.51;55.19;101863.53;1885844;74;22653;-61
2021/05/09 07:05:53;;;;;;;15.90;6.80;;;;;;;22.49;55.18;101861.05;1835972;76;24322;-61
2021/05/09 07:08:30;;;;;;;7.53;2.60;;;;;;;22.49;55.18;101860.27;1850949;75;28574;-59
2021/05/09 07:13:18;;;;;;;3.17;1.82;;;;;;;22.73;54.66;101870.65;1863263;75;22004;-58
2021/05/09 07:15:55;;;;;;;4.42;2.02;;;;;;;22.66;54.68;101866.05;1857967;75;22704;-59
2021/05/09 07:18:31;;;;;;;2.80;1.70;;;;;;;22.59;54.63;101864.22;1834788;76;22691;-61
2021/05/09 07:23:48;;;;;;;2.60;1.30;;;;;;;22.64;53.75;101871.89;1861246;75;22721;-61
2021/05/09 07:26:25;;;;;;;2.27;1.80;;;;;;;22.57;53.70;101865.93;1863010;75;23176;-58
2021/05/09 07:29:01;;;;;;;1.98;1.50;;;;;;;22.53;53.60;101871.80;1863478;75;23321;-58
2021/05/09 07:31:40;;;;;;;3.03;1.90;;;;;;;22.50;53.45;101871.59;1840131;75;27783;-61
2021/05/09 07:34:14;;;;;;;3.77;1.30;;;;;;;22.59;52.48;101870.59;1840210;76;22721;-61
2021/05/09 07:36:49;;;;;;;2.50;1.60;;;;;;;22.54;52.36;101871.23;1821438;76;27884;-59
2021/05/09 07:39:24;;;;;;;1.50;1.10;;;;;;;22.66;51.35;101866.05;1855446;75;23651;-58
2021/05/09 07:42:00;;;;;;;2.55;1.40;;;;;;;22.59;51.30;101863.66;1828407;76;22789;-58
2021/05/09 07:44:35;;;;;;;2.12;1.15;;;;;;;22.53;51.17;101860.70;1865247;75;23316;-58
2021/05/09 07:47:11;;;;;;;1.90;1.22;;;;;;;22.48;51.06;101871.09;1859559;75;22709;-59
2021/05/09 07:49:47;;;;;;;7.05;4.92;;;;;;;22.44;50.94;101873.66;1860123;74;27915;-58
2021/05/09 07:52:22;;;;;;;26.27;16.17;;;;;;;22.53;50.05;101869.02;1863746;75;22468;-58
2021/05/09 07:54:57;;;;;;;45.10;25.70;;;;;;;22.48;50.05;101873.30;1841045;75;23313;-61
2021/05/09 07:57:33;;;;;;;57.83;34.30;;;;;;;22.44;50.01;101877.81;1865201;74;38907;-58
2021/05/09 08:00:12;;;;;;;45.92;26.37;;;;;;;22.56;49.35;101871.21;1891462;74;22653;-61
2021/05/09 08:02:49;;;;;;;43.00;23.00;;;;;;;22.53;49.50;101869.61;1860527;75;22705;-59
2021/05/09 08:05:24;;;;;;;45.03;21.20;;;;;;;22.48;49.62;101872.48;1889391;74;22652;-61
2021/05/09 08:07:59;;;;;;;21.35;8.63;;;;;;;22.44;49.71;101874.22;1858844;75;23298;-59
2021/05/09 08:10:38;;;;;;;9.28;4.47;;;;;;;22.39;49.30;101874.30;1858520;75;23645;-59
2021/05/09 08:13:13;;;;;;;6.62;3.02;;;;;;;22.26;48.00;101873.95;1859848;75;22751;-58
2021/05/09 08:15:49;;;;;;;6.08;2.77;;;;;;;22.13;47.05;101873.34;1856491;75;23324;-61
2021/05/09 08:18:25;;;;;;;5.62;2.15;;;;;;;22.04;46.27;101873.77;1841025;76;23334;-61
2021/05/09 08:21:02;;;;;;;4.00;2.20;;;;;;;21.98;45.37;101867.23;1842233;75;28499;-58
2021/05/09 08:23:39;;;;;;;4.35;2.70;;;;;;;22.03;41.74;101868.52;1839838;75;27863;-60
2021/05/09 08:26:14;;;;;;;4.92;2.00;;;;;;;22.10;39.44;101870.36;1856944;75;22090;-59
2021/05/09 08:28:49;;;;;;;5.20;1.95;;;;;;;21.98;39.50;101863.87;1860111;75;22684;-60
2021/05/09 08:31:24;;;;;;;3.42;1.92;;;;;;;21.91;39.57;101865.36;1891447;74;23334;-59
2021/05/09 08:34:00;;;;;;;3.83;1.98;;;;;;;21.85;39.75;101861.86;1838112;76;22741;-60
2021/05/09 08:36:35;;;;;;;3.52;1.77;;;;;;;21.83;40.03;101862.16;1859495;75;23412;-62
2021/05/09 08:39:10;;;;;;;3.20;1.90;;;;;;;21.81;40.37;101854.69;1860674;75;22701;-60
2021/05/09 08:41:48;;;;;;;4.03;1.80;;;;;;;21.81;40.68;101861.61;1837189;76;22710;-60
2021/05/09 08:44:22;;;;;;;2.83;1.60;;;;;;;21.82;40.97;101863.83;1862436;75;22712;-60
2021/05/09 08:46:58;;;;;;;3.40;1.50;;;;;;;21.83;41.22;101855.78;1866210;75;23249;-61
2021/05/09 08:49:33;;;;;;;3.35;1.57;;;;;;;21.81;41.46;101859.44;1862417;75;23189;-62
2021/05/09 08:52:09;;;;;;;2.15;1.45;;;;;;;21.80;41.69;101859.99;1856370;75;22760;-62
2021/05/09 08:54:45;;;;;;;4.78;1.92;;;;;;;21.81;41.85;101863.00;1841217;75;28375;-62
2021/05/09 08:57:20;;;;;;;2.92;1.62;;;;;;;21.93;41.60;101855.67;1878845;74;23402;-60
2021/05/09 08:59:55;;;;;;;2.87;1.42;;;;;;;21.94;41.84;101856.50;1864694;75;23374;-59
2021/05/09 09:02:30;;;;;;;2.83;1.80;;;;;;;21.93;42.05;101857.61;1856977;75;23364;-62
2021/05/09 09:05:07;;;;;;;3.70;1.42;;;;;;;21.92;42.21;101854.54;1837376;76;22693;-62
2021/05/09 09:07:51;;;;;;;2.00;1.50;;;;;;;21.91;42.39;101847.34;1860320;75;21967;-62
2021/05/09 09:10:44;;;;;;;2.62;1.37;;;;;;;21.91;42.53;101857.05;1857288;75;23281;-60
2021/05/09 09:13:31;;;;;;;6.22;3.30;;;;;;;21.90;42.62;101840.98;1829629;76;22701;-59
2021/05/09 09:16:07;;;;;;;3.55;1.60;;;;;;;21.91;42.68;101848.17;1880242;74;23337;-59
2021/05/09 09:18:43;;;;;;;2.83;1.75;;;;;;;21.91;42.68;101836.27;1842117;75;28468;-60
2021/05/09 09:21:29;;;;;;;2.90;1.60;;;;;;;22.05;42.15;101843.55;1822748;76;27924;-60
2021/05/09 09:24:11;;;;;;;11.20;4.97;;;;;;;22.21;41.86;101831.08;1844720;75;27957;-61
2021/05/09 09:26:49;;;;;;;6.87;1.90;;;;;;;22.36;41.46;101839.70;1858397;75;22779;-61
2021/05/09 09:29:30;;;;;;;9.80;2.70;;;;;;;22.32;41.67;101833.09;1863317;75;22708;-61
2021/05/09 09:32:08;;;;;;;3.15;1.30;;;;;;;22.30;41.83;101834.80;1859132;75;22722;-61
2021/05/09 09:37:26;;;;;;;5.15;1.47;;;;;;;22.26;42.07;101835.14;1862095;75;24239;-64
2021/05/09 09:40:02;;;;;;;2.67;1.60;;;;;;;22.25;42.12;101840.42;1861281;74;27728;-63
2021/05/09 09:42:48;;;;;;;4.42;1.72;;;;;;;22.41;41.67;101844.30;1859498;75;23269;-63
2021/05/09 09:45:28;;;;;;;1.92;1.40;;;;;;;22.40;41.91;101845.45;1868481;76;22982;-60
2021/05/09 09:48:05;;;;;;;8.50;3.20;;;;;;;22.40;42.12;101843.50;1841178;76;23111;-63
2021/05/09 09:50:50;;;;;;;2.17;1.40;;;;;;;22.42;42.31;101844.56;1865659;76;22647;-64
2021/05/09 09:53:37;;;;;;;2.80;1.47;;;;;;;22.43;42.47;101839.28;1863644;75;23352;-62
2021/05/09 09:56:21;;;;;;;44.53;11.70;;;;;;;22.42;42.57;101835.69;1833550;76;22333;-63
2021/05/09 09:59:03;;;;;;;3.60;1.60;;;;;;;22.43;42.61;101825.42;1871744;75;22704;-60
2021/05/09 10:01:40;;;;;;;1.75;1.12;;;;;;;22.42;42.69;101829.31;1862490;75;23306;-58
2021/05/09 10:04:15;;;;;;;1.90;1.27;;;;;;;22.43;42.78;101839.28;1869817;74;21049;-62
2021/05/09 10:06:51;;;;;;;4.22;1.80;;;;;;;22.45;42.86;101829.52;1866084;75;22556;-61
2021/05/09 10:09:26;;;;;;;3.72;1.42;;;;;;;22.48;42.96;101826.72;1831482;76;22806;-60
2021/05/09 10:12:02;;;;;;;3.45;1.47;;;;;;;22.50;43.07;101831.38;1865557;75;22747;-60
2021/05/09 10:14:38;;;;;;;3.80;1.50;;;;;;;22.53;43.19;101833.56;1841637;76;27822;-62
2021/05/09 10:17:13;;;;;;;3.65;1.22;;;;;;;22.67;43.04;101834.38;1864215;75;22707;-61
2021/05/09 10:19:48;;;;;;;4.75;1.30;;;;;;;22.67;43.20;101831.61;1862461;75;22697;-65
2021/05/09 10:22:34;;;;;;;2.52;0.90;;;;;;;22.67;43.32;101820.52;1860204;75;23104;-62
2021/05/09 10:25:11;;;;;;;3.93;1.40;;;;;;;22.68;43.41;101823.55;1825059;76;27955;-64
2021/05/09 10:27:46;;;;;;;1.72;1.10;;;;;;;22.82;43.30;101810.55;1862612;75;22365;-62
2021/05/09 10:30:21;;;;;;;1.90;0.95;;;;;;;22.81;43.48;101810.28;1857081;75;22790;-63
2021/05/09 10:32:57;;;;;;;1.62;1.10;;;;;;;22.82;43.57;101806.95;1865906;75;23260;-64
2021/05/09 10:35:34;;;;;;;1.37;0.90;;;;;;;22.82;43.64;101800.01;1874914;75;22715;-64
2021/05/09 10:38:10;;;;;;;1.25;1.00;;;;;;;22.82;43.67;101800.83;1864416;75;22710;-65
2021/05/09 10:40:46;;;;;;;1.82;1.00;;;;;;;22.83;43.68;101791.36;1886248;74;23092;-63
2021/05/09 10:43:29;;;;;;;3.00;1.40;;;;;;;22.84;43.70;101792.18;1844930;75;27880;-64
2021/05/09 10:46:04;;;;;;;1.70;1.00;;;;;;;22.96;43.34;101783.59;1884050;74;22652;-65
2021/05/09 10:48:39;;;;;;;1.62;0.93;;;;;;;22.95;43.43;101797.23;1862521;75;22683;-64
2021/05/09 10:51:23;;;;;;;2.58;0.98;;;;;;;22.95;43.46;101794.45;1862219;75;22724;-64
2021/05/09 10:54:18;;;;;;;1.42;0.85;;;;;;;22.96;43.50;101792.48;1839019;76;22686;-64
2021/05/09 10:56:53;;;;;;;1.27;0.95;;;;;;;22.96;43.53;101792.48;1838686;76;22700;-64
2021/05/09 10:59:58;;;;;;;1.45;0.75;;;;;;;22.95;43.58;101790.30;1859476;75;23332;-64
2021/05/09 11:02:34;;;;;;;1.40;0.88;;;;;;;22.96;43.60;101793.30;1887896;74;22669;-64
2021/05/09 11:05:10;;;;;;;2.20;1.03;;;;;;;22.96;43.63;101775.83;1791352;77;38748;-64
2021/05/09 11:07:45;;;;;;;1.50;1.05;;;;;;;23.09;43.32;101782.75;1843525;75;28331;-64
2021/05/09 11:10:40;;;;;;;1.05;0.88;;;;;;;23.23;43.13;101783.55;1859929;75;22660;-64
2021/05/09 11:13:15;;;;;;;1.40;0.90;;;;;;;23.22;43.32;101781.08;1848879;75;23361;-64
2021/05/09 11:16:19;;;;;;;1.45;0.90;;;;;;;23.18;43.43;101767.00;1874326;75;22789;-62
2021/05/09 11:19:01;;;;;;;1.12;0.70;;;;;;;23.20;43.45;101770.87;1867054;75;23363;-62
2021/05/09 11:21:49;;;;;;;1.60;1.00;;;;;;;23.17;43.48;101772.30;1844280;76;22850;-64
2021/05/09 11:24:27;;;;;;;0.98;0.80;;;;;;;23.17;43.53;101769.52;1840704;76;22672;-64
2021/05/09 11:27:13;;;;;;;1.22;0.80;;;;;;;23.16;43.53;101765.69;1811650;77;22720;-64
2021/05/09 11:29:50;;;;;;;2.12;1.00;;;;;;;23.17;43.60;101763.14;1853649;75;24392;-64
2021/05/09 11:32:25;;;;;;;1.27;0.78;;;;;;;23.17;43.64;101765.91;1822377;76;22075;-64
2021/05/09 11:35:03;;;;;;;1.42;0.70;;;;;;;23.17;43.67;101760.36;1861238;75;22690;-64
2021/05/09 11:37:42;;;;;;;1.25;0.90;;;;;;;23.17;43.72;101750.09;1852877;75;22774;-65
2021/05/09 11:40:18;;;;;;;2.83;0.90;;;;;;;23.18;43.71;101760.62;1857150;75;22779;-64
2021/05/09 11:42:53;;;;;;;1.12;0.80;;;;;;;23.19;43.70;101741.45;1859655;75;22661;-64
2021/05/09 11:45:28;;;;;;;1.10;0.85;;;;;;;23.20;43.71;101742.55;1840067;76;23323;-64
2021/05/09 11:48:05;;;;;;;1.40;1.10;;;;;;;23.21;43.73;101747.53;1831007;75;38135;-64
2021/05/09 11:50:41;;;;;;;1.63;1.03;;;;;;;23.36;43.48;101731.06;1863982;74;28328;-62
2021/05/09 11:53:23;;;;;;;1.57;0.90;;;;;;;23.51;43.26;101732.92;1828217;75;27887;-64
2021/05/09 11:56:00;;;;;;;1.35;0.80;;;;;;;23.65;43.05;101737.86;1864699;75;23380;-64
2021/05/09 11:58:35;;;;;;;1.37;0.98;;;;;;;23.62;43.27;101736.30;1864843;74;27779;-64
2021/05/09 12:01:11;;;;;;;1.32;0.90;;;;;;;23.76;42.96;101739.01;1845456;76;23371;-62
2021/05/09 12:03:47;;;;;;;1.22;0.90;;;;;;;23.72;43.15;101738.00;1840836;76;27726;-62
2021/05/09 12:06:22;;;;;;;1.47;0.80;;;;;;;23.86;42.80;101731.78;1853407;75;23232;-64
2021/05/09 12:08:57;;;;;;;0.95;0.70;;;;;;;23.80;43.00;101733.06;1896591;74;22644;-62
2021/05/09 12:11:33;;;;;;;1.32;1.00;;;;;;;23.76;43.07;101721.77;1857953;75;23337;-61
2021/05/09 12:14:08;;;;;;;1.07;0.90;;;;;;;23.73;43.08;101723.77;1855125;75;22741;-62